sensor_id;sensor_type;location;lat;lon;timestamp;temperature;humidity
21612;DHT22;47005;52.292;13.452;2022-09-30T00:01:08;9.50;99.90
21612;DHT22;47005;52.292;13.452;2022-09-30T00:03:34;9.40;99.90
21612;DHT22;47005;52.292;13.452;2022-09-30T00:06:05;9.40;99.90
21612;DHT22;47005;52.292;13.452;2022-09-30T00:08:31;9.40;99.90
21612;DHT22;47005;52.292;13.452;2022-09-30T00:11:04;9.40;99.90
21612;DHT22;47005;52.292;13.452;2022-09-30T00:13:32;9.40;99.90
21612;DHT22;47005;52.292;13.452;2022-09-30T00:15:58;9.40;99.90
21612;DHT22;47005;52.292;13.452;2022-09-30T00:18:24;9.30;99.90
21612;DHT22;47005;52.292;13.452;2022-09-30T00:20:49;9.30;99.90
21612;DHT22;47005;52.292;13.452;2022-09-30T00:23:15;9.30;99.90
21612;DHT22;47005;52.292;13.452;2022-09-30T00:25:41;9.30;99.90
21612;DHT22;47005;52.292;13.452;2022-09-30T00:28:06;9.30;99.90
21612;DHT22;47005;52.292;13.452;2022-09-30T00:30:33;9.30;99.90
21612;DHT22;47005;52.292;13.452;2022-09-30T00:32:59;9.30;99.90
21612;DHT22;47005;52.292;13.452;2022-09-30T00:35:25;9.30;99.90
21612;DHT22;47005;52.292;13.452;2022-09-30T00:37:50;9.20;99.90
21612;DHT22;47005;52.292;13.452;2022-09-30T00:40:19;9.20;99.90
21612;DHT22;47005;52.292;13.452;2022-09-30T00:42:44;9.20;99.90
21612;DHT22;47005;52.292;13.452;2022-09-30T00:45:11;9.20;99.90
21612;DHT22;47005;52.292;13.452;2022-09-30T00:50:35;9.20;99.90
21612;DHT22;47005;52.292;13.452;2022-09-30T00:58:07;9.10;99.90
21612;DHT22;47005;52.292;13.452;2022-09-30T01:00:34;9.10;99.90
21612;DHT22;47005;52.292;13.452;2022-09-30T01:03:00;9.10;99.90
21612;DHT22;47005;52.292;13.452;2022-09-30T01:05:26;9.10;99.90
21612;DHT22;47005;52.292;13.452;2022-09-30T01:07:55;9.00;99.90
21612;DHT22;47005;52.292;13.452;2022-09-30T01:10:22;9.10;99.90
21612;DHT22;47005;52.292;13.452;2022-09-30T01:12:47;9.00;99.90
21612;DHT22;47005;52.292;13.452;2022-09-30T01:15:13;9.00;99.90
21612;DHT22;47005;52.292;13.452;2022-09-30T01:17:52;9.00;99.90
21612;DHT22;47005;52.292;13.452;2022-09-30T01:20:33;9.00;99.90
21612;DHT22;47005;52.292;13.452;2022-09-30T01:26:31;9.00;99.90
21612;DHT22;47005;52.292;13.452;2022-09-30T01:32:00;8.90;99.90
21612;DHT22;47005;52.292;13.452;2022-09-30T01:40:22;8.90;99.90
21612;DHT22;47005;52.292;13.452;2022-09-30T01:48:56;8.80;99.90
21612;DHT22;47005;52.292;13.452;2022-09-30T01:51:39;8.80;99.90
21612;DHT22;47005;52.292;13.452;2022-09-30T01:56:48;8.80;99.90
21612;DHT22;47005;52.292;13.452;2022-09-30T01:59:23;8.80;99.90
21612;DHT22;47005;52.292;13.452;2022-09-30T02:01:54;8.80;99.90
21612;DHT22;47005;52.292;13.452;2022-09-30T02:04:40;8.70;99.90
21612;DHT22;47005;52.292;13.452;2022-09-30T02:07:15;8.70;99.90
21612;DHT22;47005;52.292;13.452;2022-09-30T02:09:59;8.70;99.90
21612;DHT22;47005;52.292;13.452;2022-09-30T02:12:29;8.70;99.90
21612;DHT22;47005;52.292;13.452;2022-09-30T02:15:02;8.70;99.90
21612;DHT22;47005;52.292;13.452;2022-09-30T02:17:36;8.60;99.90
21612;DHT22;47005;52.292;13.452;2022-09-30T02:20:32;8.70;99.90
21612;DHT22;47005;52.292;13.452;2022-09-30T02:25:38;8.70;99.90
21612;DHT22;47005;52.292;13.452;2022-09-30T02:28:10;8.60;99.90
21612;DHT22;47005;52.292;13.452;2022-09-30T02:30:40;8.60;99.90
21612;DHT22;47005;52.292;13.452;2022-09-30T02:33:11;8.60;99.90
21612;DHT22;47005;52.292;13.452;2022-09-30T02:35:44;8.60;99.90
21612;DHT22;47005;52.292;13.452;2022-09-30T02:38:20;8.60;99.90
21612;DHT22;47005;52.292;13.452;2022-09-30T02:41:18;8.60;99.90
21612;DHT22;47005;52.292;13.452;2022-09-30T02:43:42;8.50;99.90
21612;DHT22;47005;52.292;13.452;2022-09-30T02:46:24;8.50;99.90
21612;DHT22;47005;52.292;13.452;2022-09-30T02:49:08;8.50;99.90
21612;DHT22;47005;52.292;13.452;2022-09-30T02:57:18;8.50;99.90
21612;DHT22;47005;52.292;13.452;2022-09-30T02:59:48;8.50;99.90
21612;DHT22;47005;52.292;13.452;2022-09-30T03:02:15;8.40;99.90
21612;DHT22;47005;52.292;13.452;2022-09-30T03:04:42;8.40;99.90
21612;DHT22;47005;52.292;13.452;2022-09-30T03:07:09;8.40;99.90
21612;DHT22;47005;52.292;13.452;2022-09-30T03:09:35;8.40;99.90
21612;DHT22;47005;52.292;13.452;2022-09-30T03:12:13;8.40;99.90
21612;DHT22;47005;52.292;13.452;2022-09-30T03:17:27;8.30;99.90
21612;DHT22;47005;52.292;13.452;2022-09-30T03:23:08;8.30;99.90
21612;DHT22;47005;52.292;13.452;2022-09-30T03:28:32;8.30;99.90
21612;DHT22;47005;52.292;13.452;2022-09-30T03:31:17;8.30;99.90
21612;DHT22;47005;52.292;13.452;2022-09-30T03:33:54;8.30;99.90
21612;DHT22;47005;52.292;13.452;2022-09-30T03:36:40;8.20;99.90
21612;DHT22;47005;52.292;13.452;2022-09-30T03:39:14;8.20;99.90
21612;DHT22;47005;52.292;13.452;2022-09-30T03:41:43;8.20;99.90
21612;DHT22;47005;52.292;13.452;2022-09-30T03:44:21;8.20;99.90
21612;DHT22;47005;52.292;13.452;2022-09-30T03:46:51;8.20;99.90
21612;DHT22;47005;52.292;13.452;2022-09-30T03:49:25;8.20;99.90
21612;DHT22;47005;52.292;13.452;2022-09-30T03:51:53;8.10;99.90
21612;DHT22;47005;52.292;13.452;2022-09-30T03:54:19;8.10;99.90
21612;DHT22;47005;52.292;13.452;2022-09-30T03:56:45;8.10;99.90
21612;DHT22;47005;52.292;13.452;2022-09-30T03:59:16;8.10;99.90
21612;DHT22;47005;52.292;13.452;2022-09-30T04:01:43;8.10;99.90
21612;DHT22;47005;52.292;13.452;2022-09-30T04:04:09;8.10;99.90
21612;DHT22;47005;52.292;13.452;2022-09-30T04:06:34;8.10;99.90
21612;DHT22;47005;52.292;13.452;2022-09-30T04:09:00;8.10;99.90
21612;DHT22;47005;52.292;13.452;2022-09-30T04:11:26;8.10;99.90
21612;DHT22;47005;52.292;13.452;2022-09-30T04:13:51;8.00;99.90
21612;DHT22;47005;52.292;13.452;2022-09-30T04:16:17;8.00;99.90
21612;DHT22;47005;52.292;13.452;2022-09-30T04:18:43;8.00;99.90
21612;DHT22;47005;52.292;13.452;2022-09-30T04:21:11;8.00;99.90
21612;DHT22;47005;52.292;13.452;2022-09-30T04:23:38;8.00;99.90
21612;DHT22;47005;52.292;13.452;2022-09-30T04:26:05;8.00;99.90
21612;DHT22;47005;52.292;13.452;2022-09-30T04:28:31;8.00;99.90
21612;DHT22;47005;52.292;13.452;2022-09-30T04:31:01;8.00;99.90
21612;DHT22;47005;52.292;13.452;2022-09-30T04:33:27;7.90;99.90
21612;DHT22;47005;52.292;13.452;2022-09-30T04:35:54;7.90;99.90
21612;DHT22;47005;52.292;13.452;2022-09-30T04:38:21;7.90;99.90
21612;DHT22;47005;52.292;13.452;2022-09-30T04:40:47;7.90;99.90
21612;DHT22;47005;52.292;13.452;2022-09-30T04:43:15;7.90;99.90
21612;DHT22;47005;52.292;13.452;2022-09-30T04:45:42;7.90;99.90
21612;DHT22;47005;52.292;13.452;2022-09-30T04:48:09;7.90;99.90
21612;DHT22;47005;52.292;13.452;2022-09-30T04:50:35;7.90;99.90
21612;DHT22;47005;52.292;13.452;2022-09-30T04:53:00;7.90;99.90
21612;DHT22;47005;52.292;13.452;2022-09-30T04:55:28;7.90;99.90
21612;DHT22;47005;52.292;13.452;2022-09-30T04:57:54;7.90;99.90
21612;DHT22;47005;52.292;13.452;2022-09-30T05:00:19;7.90;99.90
21612;DHT22;47005;52.292;13.452;2022-09-30T05:02:45;7.90;99.90
21612;DHT22;47005;52.292;13.452;2022-09-30T05:05:11;7.80;99.90
21612;DHT22;47005;52.292;13.452;2022-09-30T05:07:36;7.80;99.90
21612;DHT22;47005;52.292;13.452;2022-09-30T05:10:02;7.80;99.90
21612;DHT22;47005;52.292;13.452;2022-09-30T05:12:27;7.80;99.90
21612;DHT22;47005;52.292;13.452;2022-09-30T05:14:53;7.80;99.90
21612;DHT22;47005;52.292;13.452;2022-09-30T05:17:18;7.80;99.90
21612;DHT22;47005;52.292;13.452;2022-09-30T05:19:44;7.80;99.90
21612;DHT22;47005;52.292;13.452;2022-09-30T05:22:09;7.80;99.90
21612;DHT22;47005;52.292;13.452;2022-09-30T05:24:35;7.80;99.90
21612;DHT22;47005;52.292;13.452;2022-09-30T05:27:01;7.80;99.90
21612;DHT22;47005;52.292;13.452;2022-09-30T05:29:27;7.80;99.90
21612;DHT22;47005;52.292;13.452;2022-09-30T05:31:52;7.80;99.90
21612;DHT22;47005;52.292;13.452;2022-09-30T05:34:18;7.80;99.90
21612;DHT22;47005;52.292;13.452;2022-09-30T05:36:45;7.80;99.90
21612;DHT22;47005;52.292;13.452;2022-09-30T05:39:11;7.70;99.90
21612;DHT22;47005;52.292;13.452;2022-09-30T05:41:37;7.80;99.90
21612;DHT22;47005;52.292;13.452;2022-09-30T05:44:02;7.80;99.90
21612;DHT22;47005;52.292;13.452;2022-09-30T05:46:28;7.80;99.90
21612;DHT22;47005;52.292;13.452;2022-09-30T05:48:54;7.70;99.90
21612;DHT22;47005;52.292;13.452;2022-09-30T05:51:20;7.70;99.90
21612;DHT22;47005;52.292;13.452;2022-09-30T05:53:46;7.70;99.90
21612;DHT22;47005;52.292;13.452;2022-09-30T05:56:12;7.70;99.90
21612;DHT22;47005;52.292;13.452;2022-09-30T05:58:38;7.80;99.90
21612;DHT22;47005;52.292;13.452;2022-09-30T06:01:08;7.80;99.90
21612;DHT22;47005;52.292;13.452;2022-09-30T06:03:37;7.70;99.90
21612;DHT22;47005;52.292;13.452;2022-09-30T06:06:04;7.80;99.90
21612;DHT22;47005;52.292;13.452;2022-09-30T06:08:30;7.80;99.90
21612;DHT22;47005;52.292;13.452;2022-09-30T06:10:56;7.80;99.90
21612;DHT22;47005;52.292;13.452;2022-09-30T06:13:26;7.80;99.90
21612;DHT22;47005;52.292;13.452;2022-09-30T06:16:00;7.80;99.90
21612;DHT22;47005;52.292;13.452;2022-09-30T06:18:26;7.80;99.90
21612;DHT22;47005;52.292;13.452;2022-09-30T06:20:59;7.80;99.90
21612;DHT22;47005;52.292;13.452;2022-09-30T06:23:26;7.90;99.90
21612;DHT22;47005;52.292;13.452;2022-09-30T06:25:53;7.90;99.90
21612;DHT22;47005;52.292;13.452;2022-09-30T06:28:19;7.90;99.90
21612;DHT22;47005;52.292;13.452;2022-09-30T06:30:45;7.90;99.90
21612;DHT22;47005;52.292;13.452;2022-09-30T06:33:11;7.90;99.90
21612;DHT22;47005;52.292;13.452;2022-09-30T06:35:37;8.00;99.90
21612;DHT22;47005;52.292;13.452;2022-09-30T06:38:06;8.00;99.90
21612;DHT22;47005;52.292;13.452;2022-09-30T06:40:32;8.00;99.90
21612;DHT22;47005;52.292;13.452;2022-09-30T06:43:01;8.00;99.90
21612;DHT22;47005;52.292;13.452;2022-09-30T06:45:27;8.10;99.90
21612;DHT22;47005;52.292;13.452;2022-09-30T06:48:01;8.10;99.90
21612;DHT22;47005;52.292;13.452;2022-09-30T06:50:28;8.10;99.90
21612;DHT22;47005;52.292;13.452;2022-09-30T06:53:01;8.10;99.90
21612;DHT22;47005;52.292;13.452;2022-09-30T06:55:28;8.20;99.90
21612;DHT22;47005;52.292;13.452;2022-09-30T06:57:55;8.20;99.90
21612;DHT22;47005;52.292;13.452;2022-09-30T07:00:22;8.30;99.90
21612;DHT22;47005;52.292;13.452;2022-09-30T07:02:48;8.30;99.90
21612;DHT22;47005;52.292;13.452;2022-09-30T07:05:15;8.30;99.90
21612;DHT22;47005;52.292;13.452;2022-09-30T07:07:41;8.30;99.90
21612;DHT22;47005;52.292;13.452;2022-09-30T07:10:09;8.40;99.90
21612;DHT22;47005;52.292;13.452;2022-09-30T07:12:35;8.40;99.90
21612;DHT22;47005;52.292;13.452;2022-09-30T07:15:01;8.50;99.90
21612;DHT22;47005;52.292;13.452;2022-09-30T07:17:27;8.50;99.90
21612;DHT22;47005;52.292;13.452;2022-09-30T07:19:53;8.60;99.90
21612;DHT22;47005;52.292;13.452;2022-09-30T07:22:19;8.60;99.90
21612;DHT22;47005;52.292;13.452;2022-09-30T07:25:00;8.60;99.90
21612;DHT22;47005;52.292;13.452;2022-09-30T07:27:28;8.70;99.90
21612;DHT22;47005;52.292;13.452;2022-09-30T07:29:56;8.70;99.90
21612;DHT22;47005;52.292;13.452;2022-09-30T07:32:21;8.80;99.90
21612;DHT22;47005;52.292;13.452;2022-09-30T07:34:47;8.80;99.90
21612;DHT22;47005;52.292;13.452;2022-09-30T07:37:15;8.80;99.90
21612;DHT22;47005;52.292;13.452;2022-09-30T07:39:42;8.90;99.90
21612;DHT22;47005;52.292;13.452;2022-09-30T07:42:09;8.90;99.90
21612;DHT22;47005;52.292;13.452;2022-09-30T07:44:35;8.90;99.90
21612;DHT22;47005;52.292;13.452;2022-09-30T07:47:02;9.00;99.90
21612;DHT22;47005;52.292;13.452;2022-09-30T07:49:28;9.10;99.90
21612;DHT22;47005;52.292;13.452;2022-09-30T07:51:56;9.10;99.90
21612;DHT22;47005;52.292;13.452;2022-09-30T07:54:25;9.10;99.90
21612;DHT22;47005;52.292;13.452;2022-09-30T07:56:52;9.20;99.90
21612;DHT22;47005;52.292;13.452;2022-09-30T07:59:18;9.20;99.90
21612;DHT22;47005;52.292;13.452;2022-09-30T08:01:44;9.30;99.90
21612;DHT22;47005;52.292;13.452;2022-09-30T08:04:11;9.30;99.90
21612;DHT22;47005;52.292;13.452;2022-09-30T08:06:53;9.40;99.90
21612;DHT22;47005;52.292;13.452;2022-09-30T08:09:21;9.40;99.90
21612;DHT22;47005;52.292;13.452;2022-09-30T08:11:47;9.50;99.90
21612;DHT22;47005;52.292;13.452;2022-09-30T08:14:19;9.50;99.90
21612;DHT22;47005;52.292;13.452;2022-09-30T08:16:45;9.60;99.90
21612;DHT22;47005;52.292;13.452;2022-09-30T08:19:16;9.60;99.90
21612;DHT22;47005;52.292;13.452;2022-09-30T08:21:43;9.70;99.90
21612;DHT22;47005;52.292;13.452;2022-09-30T08:24:09;9.70;99.90
21612;DHT22;47005;52.292;13.452;2022-09-30T08:26:35;9.70;99.90
21612;DHT22;47005;52.292;13.452;2022-09-30T08:29:01;9.80;99.90
21612;DHT22;47005;52.292;13.452;2022-09-30T08:31:27;9.80;99.90
21612;DHT22;47005;52.292;13.452;2022-09-30T08:33:52;9.90;99.90
21612;DHT22;47005;52.292;13.452;2022-09-30T08:36:21;9.90;99.90
21612;DHT22;47005;52.292;13.452;2022-09-30T08:38:47;10.00;99.90
21612;DHT22;47005;52.292;13.452;2022-09-30T08:44:41;10.10;99.90
21612;DHT22;47005;52.292;13.452;2022-09-30T08:50:09;10.20;99.90
21612;DHT22;47005;52.292;13.452;2022-09-30T08:52:41;10.20;99.90
21612;DHT22;47005;52.292;13.452;2022-09-30T08:55:26;10.30;99.90
21612;DHT22;47005;52.292;13.452;2022-09-30T08:57:54;10.30;99.90
21612;DHT22;47005;52.292;13.452;2022-09-30T09:00:21;10.40;99.90
21612;DHT22;47005;52.292;13.452;2022-09-30T09:02:53;10.40;99.90
21612;DHT22;47005;52.292;13.452;2022-09-30T09:08:10;10.50;99.90
21612;DHT22;47005;52.292;13.452;2022-09-30T09:10:44;10.50;99.90
21612;DHT22;47005;52.292;13.452;2022-09-30T09:16:35;10.60;99.90
21612;DHT22;47005;52.292;13.452;2022-09-30T09:24:28;10.80;99.90
21612;DHT22;47005;52.292;13.452;2022-09-30T09:26:56;10.80;99.90
21612;DHT22;47005;52.292;13.452;2022-09-30T09:32:00;10.90;99.90
21612;DHT22;47005;52.292;13.452;2022-09-30T09:34:28;11.00;99.90
21612;DHT22;47005;52.292;13.452;2022-09-30T09:37:28;11.00;99.90
21612;DHT22;47005;52.292;13.452;2022-09-30T09:47:55;11.20;99.90
21612;DHT22;47005;52.292;13.452;2022-09-30T09:50:34;11.30;99.90
21612;DHT22;47005;52.292;13.452;2022-09-30T09:53:51;11.30;99.90
21612;DHT22;47005;52.292;13.452;2022-09-30T09:56:19;11.40;99.90
21612;DHT22;47005;52.292;13.452;2022-09-30T10:01:31;11.50;99.90
21612;DHT22;47005;52.292;13.452;2022-09-30T10:06:48;11.50;99.90
21612;DHT22;47005;52.292;13.452;2022-09-30T10:09:35;11.60;99.90
21612;DHT22;47005;52.292;13.452;2022-09-30T10:14:35;11.70;99.90
21612;DHT22;47005;52.292;13.452;2022-09-30T10:17:02;11.70;99.90
21612;DHT22;47005;52.292;13.452;2022-09-30T10:19:31;11.80;99.90
21612;DHT22;47005;52.292;13.452;2022-09-30T10:24:37;11.90;99.90
21612;DHT22;47005;52.292;13.452;2022-09-30T10:27:03;11.90;99.90
21612;DHT22;47005;52.292;13.452;2022-09-30T10:29:33;11.90;99.90
21612;DHT22;47005;52.292;13.452;2022-09-30T10:32:06;12.00;99.90
21612;DHT22;47005;52.292;13.452;2022-09-30T10:37:02;12.10;99.90
21612;DHT22;47005;52.292;13.452;2022-09-30T10:39:37;12.10;99.90
21612;DHT22;47005;52.292;13.452;2022-09-30T10:45:00;12.20;99.90
21612;DHT22;47005;52.292;13.452;2022-09-30T10:47:29;12.20;99.90
21612;DHT22;47005;52.292;13.452;2022-09-30T10:50:11;12.30;99.90
21612;DHT22;47005;52.292;13.452;2022-09-30T10:52:40;12.30;99.90
21612;DHT22;47005;52.292;13.452;2022-09-30T10:55:32;12.30;99.90
21612;DHT22;47005;52.292;13.452;2022-09-30T10:58:22;12.40;99.90
21612;DHT22;47005;52.292;13.452;2022-09-30T11:01:11;12.40;99.90
21612;DHT22;47005;52.292;13.452;2022-09-30T11:03:51;12.50;99.90
21612;DHT22;47005;52.292;13.452;2022-09-30T11:06:17;12.50;99.90
21612;DHT22;47005;52.292;13.452;2022-09-30T11:09:35;12.50;99.90
21612;DHT22;47005;52.292;13.452;2022-09-30T11:11:37;12.60;99.90
21612;DHT22;47005;52.292;13.452;2022-09-30T11:14:18;12.60;99.90
21612;DHT22;47005;52.292;13.452;2022-09-30T11:20:24;12.70;99.90
21612;DHT22;47005;52.292;13.452;2022-09-30T11:28:21;12.80;99.90
21612;DHT22;47005;52.292;13.452;2022-09-30T11:36:41;13.00;99.90
21612;DHT22;47005;52.292;13.452;2022-09-30T11:44:35;13.10;99.90
21612;DHT22;47005;52.292;13.452;2022-09-30T11:50:15;13.20;99.90
21612;DHT22;47005;52.292;13.452;2022-09-30T11:53:07;13.20;99.90
21612;DHT22;47005;52.292;13.452;2022-09-30T11:58:20;13.30;99.90
21612;DHT22;47005;52.292;13.452;2022-09-30T12:00:53;13.40;99.90
21612;DHT22;47005;52.292;13.452;2022-09-30T12:03:25;13.40;99.90
21612;DHT22;47005;52.292;13.452;2022-09-30T12:05:56;13.40;99.90
21612;DHT22;47005;52.292;13.452;2022-09-30T12:08:29;13.40;99.90
21612;DHT22;47005;52.292;13.452;2022-09-30T12:11:09;13.50;99.90
21612;DHT22;47005;52.292;13.452;2022-09-30T12:13:40;13.50;99.90
21612;DHT22;47005;52.292;13.452;2022-09-30T12:16:15;13.60;99.90
21612;DHT22;47005;52.292;13.452;2022-09-30T12:18:51;13.60;99.90
21612;DHT22;47005;52.292;13.452;2022-09-30T12:21:25;13.60;99.90
21612;DHT22;47005;52.292;13.452;2022-09-30T12:24:14;13.70;99.90
21612;DHT22;47005;52.292;13.452;2022-09-30T12:26:43;13.70;99.90
21612;DHT22;47005;52.292;13.452;2022-09-30T12:29:19;13.80;99.90
21612;DHT22;47005;52.292;13.452;2022-09-30T12:32:14;13.80;99.90
21612;DHT22;47005;52.292;13.452;2022-09-30T12:35:16;13.90;99.90
21612;DHT22;47005;52.292;13.452;2022-09-30T12:48:49;14.00;99.90
21612;DHT22;47005;52.292;13.452;2022-09-30T12:51:30;14.00;99.90
21612;DHT22;47005;52.292;13.452;2022-09-30T12:56:46;14.00;99.90
21612;DHT22;47005;52.292;13.452;2022-09-30T12:59:24;14.00;99.90
21612;DHT22;47005;52.292;13.452;2022-09-30T13:01:50;14.00;99.90
21612;DHT22;47005;52.292;13.452;2022-09-30T13:04:32;14.10;99.90
21612;DHT22;47005;52.292;13.452;2022-09-30T13:09:34;14.10;99.90
21612;DHT22;47005;52.292;13.452;2022-09-30T13:27:42;14.20;99.90
21612;DHT22;47005;52.292;13.452;2022-09-30T13:43:24;14.30;99.90
21612;DHT22;47005;52.292;13.452;2022-09-30T13:45:53;14.30;99.90
21612;DHT22;47005;52.292;13.452;2022-09-30T13:48:32;14.30;99.90
21612;DHT22;47005;52.292;13.452;2022-09-30T13:51:00;14.30;99.90
21612;DHT22;47005;52.292;13.452;2022-09-30T13:53:37;14.30;99.90
21612;DHT22;47005;52.292;13.452;2022-09-30T13:59:08;14.30;99.90
21612;DHT22;47005;52.292;13.452;2022-09-30T14:15:37;14.50;99.90
21612;DHT22;47005;52.292;13.452;2022-09-30T14:21:18;14.50;99.90
21612;DHT22;47005;52.292;13.452;2022-09-30T14:23:56;14.50;99.90
21612;DHT22;47005;52.292;13.452;2022-09-30T14:31:52;14.60;99.90
21612;DHT22;47005;52.292;13.452;2022-09-30T14:34:20;14.60;99.90
21612;DHT22;47005;52.292;13.452;2022-09-30T14:36:46;14.60;99.90
21612;DHT22;47005;52.292;13.452;2022-09-30T14:39:18;14.60;99.90
21612;DHT22;47005;52.292;13.452;2022-09-30T14:41:57;14.60;99.90
21612;DHT22;47005;52.292;13.452;2022-09-30T14:44:24;14.60;99.90
21612;DHT22;47005;52.292;13.452;2022-09-30T14:46:51;14.60;99.90
21612;DHT22;47005;52.292;13.452;2022-09-30T14:49:25;14.70;99.90
21612;DHT22;47005;52.292;13.452;2022-09-30T14:52:00;14.60;99.90
21612;DHT22;47005;52.292;13.452;2022-09-30T14:54:29;14.60;99.90
21612;DHT22;47005;52.292;13.452;2022-09-30T14:56:57;14.70;99.90
21612;DHT22;47005;52.292;13.452;2022-09-30T14:59:29;14.60;99.90
21612;DHT22;47005;52.292;13.452;2022-09-30T15:02:17;14.70;99.90
21612;DHT22;47005;52.292;13.452;2022-09-30T15:04:50;14.70;99.90
21612;DHT22;47005;52.292;13.452;2022-09-30T15:07:16;14.70;99.90
21612;DHT22;47005;52.292;13.452;2022-09-30T15:09:44;14.70;99.90
21612;DHT22;47005;52.292;13.452;2022-09-30T15:12:15;14.70;99.90
21612;DHT22;47005;52.292;13.452;2022-09-30T15:17:33;14.70;99.90
21612;DHT22;47005;52.292;13.452;2022-09-30T15:19:59;14.70;99.90
21612;DHT22;47005;52.292;13.452;2022-09-30T15:22:26;14.70;99.90
21612;DHT22;47005;52.292;13.452;2022-09-30T15:24:53;14.70;99.90
21612;DHT22;47005;52.292;13.452;2022-09-30T15:27:37;14.70;99.90
21612;DHT22;47005;52.292;13.452;2022-09-30T15:30:22;14.70;99.90
21612;DHT22;47005;52.292;13.452;2022-09-30T15:32:54;14.70;99.90
21612;DHT22;47005;52.292;13.452;2022-09-30T15:35:20;14.70;99.90
21612;DHT22;47005;52.292;13.452;2022-09-30T15:37:48;14.60;99.90
21612;DHT22;47005;52.292;13.452;2022-09-30T15:40:16;14.70;99.90
21612;DHT22;47005;52.292;13.452;2022-09-30T15:43:05;14.60;99.90
21612;DHT22;47005;52.292;13.452;2022-09-30T15:45:36;14.60;99.90
21612;DHT22;47005;52.292;13.452;2022-09-30T15:48:32;14.60;99.90
21612;DHT22;47005;52.292;13.452;2022-09-30T15:51:00;14.60;99.90
21612;DHT22;47005;52.292;13.452;2022-09-30T15:53:46;14.50;99.90
21612;DHT22;47005;52.292;13.452;2022-09-30T15:56:23;14.50;99.90
21612;DHT22;47005;52.292;13.452;2022-09-30T15:58:57;14.50;99.90
21612;DHT22;47005;52.292;13.452;2022-09-30T16:01:25;14.50;99.90
21612;DHT22;47005;52.292;13.452;2022-09-30T16:03:55;14.50;99.90
21612;DHT22;47005;52.292;13.452;2022-09-30T16:06:31;14.40;99.90
21612;DHT22;47005;52.292;13.452;2022-09-30T16:09:01;14.40;99.90
21612;DHT22;47005;52.292;13.452;2022-09-30T16:11:39;14.40;99.90
21612;DHT22;47005;52.292;13.452;2022-09-30T16:14:10;14.30;99.90
21612;DHT22;47005;52.292;13.452;2022-09-30T16:16:41;14.30;99.90
21612;DHT22;47005;52.292;13.452;2022-09-30T16:19:16;14.30;99.90
21612;DHT22;47005;52.292;13.452;2022-09-30T16:21:47;14.20;99.90
21612;DHT22;47005;52.292;13.452;2022-09-30T16:26:48;14.20;99.90
21612;DHT22;47005;52.292;13.452;2022-09-30T16:29:15;14.10;99.90
21612;DHT22;47005;52.292;13.452;2022-09-30T16:31:42;14.10;99.90
21612;DHT22;47005;52.292;13.452;2022-09-30T16:34:27;14.10;99.90
21612;DHT22;47005;52.292;13.452;2022-09-30T16:37:02;14.10;99.90
21612;DHT22;47005;52.292;13.452;2022-09-30T16:39:29;14.00;99.90
21612;DHT22;47005;52.292;13.452;2022-09-30T16:41:55;14.00;99.90
21612;DHT22;47005;52.292;13.452;2022-09-30T16:44:20;14.00;99.90
21612;DHT22;47005;52.292;13.452;2022-09-30T16:46:48;14.00;99.90
21612;DHT22;47005;52.292;13.452;2022-09-30T16:49:15;13.90;99.90
21612;DHT22;47005;52.292;13.452;2022-09-30T16:51:41;13.90;99.90
21612;DHT22;47005;52.292;13.452;2022-09-30T16:54:08;13.80;99.90
21612;DHT22;47005;52.292;13.452;2022-09-30T16:56:34;13.80;99.90
21612;DHT22;47005;52.292;13.452;2022-09-30T16:59:00;13.80;99.90
21612;DHT22;47005;52.292;13.452;2022-09-30T17:01:27;13.70;99.90
21612;DHT22;47005;52.292;13.452;2022-09-30T17:03:54;13.70;99.90
21612;DHT22;47005;52.292;13.452;2022-09-30T17:06:28;13.70;99.90
21612;DHT22;47005;52.292;13.452;2022-09-30T17:08:54;13.60;99.90
21612;DHT22;47005;52.292;13.452;2022-09-30T17:11:25;13.60;99.90
21612;DHT22;47005;52.292;13.452;2022-09-30T17:13:51;13.60;99.90
21612;DHT22;47005;52.292;13.452;2022-09-30T17:16:17;13.60;99.90
21612;DHT22;47005;52.292;13.452;2022-09-30T17:18:42;13.50;99.90
21612;DHT22;47005;52.292;13.452;2022-09-30T17:21:08;13.50;99.90
21612;DHT22;47005;52.292;13.452;2022-09-30T17:23:33;13.50;99.90
21612;DHT22;47005;52.292;13.452;2022-09-30T17:26:03;13.40;99.90
21612;DHT22;47005;52.292;13.452;2022-09-30T17:28:28;13.40;99.90
21612;DHT22;47005;52.292;13.452;2022-09-30T17:30:54;13.40;99.90
21612;DHT22;47005;52.292;13.452;2022-09-30T17:33:19;13.40;99.90
21612;DHT22;47005;52.292;13.452;2022-09-30T17:35:56;13.30;99.90
21612;DHT22;47005;52.292;13.452;2022-09-30T17:38:23;13.30;99.90
21612;DHT22;47005;52.292;13.452;2022-09-30T17:40:49;13.30;99.90
21612;DHT22;47005;52.292;13.452;2022-09-30T17:43:33;13.30;99.90
21612;DHT22;47005;52.292;13.452;2022-09-30T17:45:58;13.20;99.90
21612;DHT22;47005;52.292;13.452;2022-09-30T17:48:24;13.20;99.90
21612;DHT22;47005;52.292;13.452;2022-09-30T17:50:49;13.20;99.90
21612;DHT22;47005;52.292;13.452;2022-09-30T17:53:17;13.10;99.90
21612;DHT22;47005;52.292;13.452;2022-09-30T17:55:44;13.10;99.90
21612;DHT22;47005;52.292;13.452;2022-09-30T17:58:13;13.10;99.90
21612;DHT22;47005;52.292;13.452;2022-09-30T18:00:39;13.10;99.90
21612;DHT22;47005;52.292;13.452;2022-09-30T18:03:05;13.10;99.90
21612;DHT22;47005;52.292;13.452;2022-09-30T18:05:31;13.00;99.90
21612;DHT22;47005;52.292;13.452;2022-09-30T18:07:57;13.00;99.90
21612;DHT22;47005;52.292;13.452;2022-09-30T18:10:24;13.00;99.90
21612;DHT22;47005;52.292;13.452;2022-09-30T18:12:51;13.00;99.90
21612;DHT22;47005;52.292;13.452;2022-09-30T18:15:18;12.90;99.90
21612;DHT22;47005;52.292;13.452;2022-09-30T18:17:44;12.90;99.90
21612;DHT22;47005;52.292;13.452;2022-09-30T18:20:12;12.90;99.90
21612;DHT22;47005;52.292;13.452;2022-09-30T18:22:38;12.90;99.90
21612;DHT22;47005;52.292;13.452;2022-09-30T18:25:05;12.90;99.90
21612;DHT22;47005;52.292;13.452;2022-09-30T18:27:52;12.80;99.90
21612;DHT22;47005;52.292;13.452;2022-09-30T18:30:20;12.80;99.90
21612;DHT22;47005;52.292;13.452;2022-09-30T18:32:50;12.80;99.90
21612;DHT22;47005;52.292;13.452;2022-09-30T18:35:17;12.70;99.90
21612;DHT22;47005;52.292;13.452;2022-09-30T18:37:45;12.70;99.90
21612;DHT22;47005;52.292;13.452;2022-09-30T18:40:12;12.70;99.90
21612;DHT22;47005;52.292;13.452;2022-09-30T18:42:41;12.70;99.90
21612;DHT22;47005;52.292;13.452;2022-09-30T18:45:07;12.70;99.90
21612;DHT22;47005;52.292;13.452;2022-09-30T18:47:36;12.60;99.90
21612;DHT22;47005;52.292;13.452;2022-09-30T18:50:02;12.60;99.90
21612;DHT22;47005;52.292;13.452;2022-09-30T18:52:27;12.60;99.90
21612;DHT22;47005;52.292;13.452;2022-09-30T18:54:53;12.60;99.90